Jonesboro Municipal Airport
KJBR : now visible

Airfield :











YOU CAN JOIN US ON...

 
LOGIN :

Register | Disclaimer

   EN    FR    IT 

 









Legend :    VFR   Marginal VFR   IFR   Intensive IFR   Very Intensive IFR
Visi :
Ceiling :
>= 8 km
>= 3000ft
5 to 8 km
1000 to 3000 ft
1500m to 5 km
500 to 1000 ft
800 to 1500m
200 to 500 ft
< 800m
< 200 ft
Symbols :   Thunderstorms  Fog  Heavy snow  Heavy precipitations  Wind > 20 kt






- Airport Elevation : 262 ft
- IATA code : JBR


KJBR - Jonesboro Municipal

CURRENT METAR :
  • 130853Z AUTO 00000KT 10SM CLR 23/21 A3013 RMK AO2 SLP198 T02280206 55002 $

EXPIRED METARs :
  • 130753Z AUTO 00000KT 10SM CLR 23/21 A3012 RMK AO2 SLP196 T02330206 $
  • 130653Z AUTO 00000KT 10SM FEW110 23/21 A3012 RMK AO2 SLP197 T02330206 $
  • 130553Z AUTO 00000KT 10SM CLR 24/21 A3013 RMK AO2 SLP200 T02440211 10317 20239 403280217 50006 $
  • 130453Z AUTO 00000KT 10SM CLR 24/22 A3013 RMK AO2 SLP200 T02440217 $

TAF KJBR
Valid from the 13 at 06:00 until the 14 at 06:00 UTC


130520Z 1306/1406 08003KT P6SM SKC
FM131300 VRB03KT P6SM SCT250
FM131700 21004KT P6SM SCT250
KZME FIR / North America



MET'MAP, your aeronautical weather chart ! - Copyright ORBIFLY December 2007 - Disclaimer

ORBIFLY MET'MAP TEAM :

Programming & Development : Alexandra Zaïnal
Original concept : Baudouin d'Aumeries
Technical & hardware support : Manuel Goepfert
Assistance : Marc-Olivier Méhu




SOURCES & CREDITS :

   NOAA       Earth
Advisory